»·PEaware :: N739MH KTOA-KRNM

N739MH :: KTOA-KRNM

FLIGHT INFORMATION

Flight Status: Arrived
Operator: Privately registered:
United States
More flights under this callsign
Pilot: David M. (27183)
Aircraft: CESSNA 172 SKYHAWK
(C172)
More flights by this aircraft type
Origin: KTOA Zamperini
United States
Destination: KRNM Ramona
United States
More flights between these airports :: More routes between these airports
Route: +LIMBO V64 V363 DANAH V23 OCN V208 JLI
File this flight plan on PilotEdge
Remarks: TEC route CSTP40
Altitude:
(Current/Filed)
7,000ft
Speed:
(Current/Filed)
115kts
Departed: 20-Oct-20 06:07 PM
Arrived: 20-Oct-20 07:28 PM
Distance/Time
Traveled:
85nm/1:20
Distance/Time
To Go:
Arrived

Flight Plot

Page will automatically refresh every two minutes.


Map Options




Map Legend


Flown Route
Filed Route
Departure Airport
Arrival Airport
Navaid (VOR, NDB)
Fix

Horizontal Profiles

Position Reports

Time Latitude Longitude Heading Altitude Ground
Speed
20-Oct-20 17:26 33.797802 -118.332294 7 108ft 0kts
20-Oct-20 17:27 33.797802 -118.332294 7 108ft 0kts
20-Oct-20 17:28 33.797802 -118.332294 7 108ft 0kts
20-Oct-20 17:29 33.797802 -118.332294 7 108ft 0kts
20-Oct-20 17:30 33.797802 -118.332294 7 108ft 0kts
20-Oct-20 17:31 33.797802 -118.332294 7 108ft 0kts
20-Oct-20 17:32 33.797802 -118.332294 7 108ft 0kts
20-Oct-20 17:33 33.797802 -118.332294 7 108ft 0kts
20-Oct-20 17:34 33.797802 -118.332294 7 108ft 0kts
20-Oct-20 17:35 33.797802 -118.332294 7 108ft 0kts
20-Oct-20 17:36 33.797802 -118.332294 7 108ft 0kts
20-Oct-20 17:37 33.797802 -118.332294 7 108ft 0kts
20-Oct-20 17:38 33.797802 -118.332294 7 108ft 0kts
20-Oct-20 17:39 33.797802 -118.332294 7 108ft 0kts
20-Oct-20 17:40 33.797802 -118.332294 7 108ft 0kts
20-Oct-20 17:41 33.797802 -118.332294 7 108ft 0kts
20-Oct-20 17:42 33.797802 -118.332294 7 108ft 0kts
20-Oct-20 17:43 33.797802 -118.332294 7 108ft 0kts
20-Oct-20 17:44 33.797802 -118.332294 7 108ft 0kts
20-Oct-20 17:45 33.797802 -118.332294 7 108ft 0kts
20-Oct-20 17:46 33.797802 -118.332294 7 108ft 0kts
20-Oct-20 17:47 33.797802 -118.332294 7 108ft 0kts
20-Oct-20 17:48 33.797802 -118.332294 7 108ft 0kts
20-Oct-20 17:49 33.797802 -118.332294 7 108ft 0kts
20-Oct-20 17:50 33.797802 -118.332294 7 108ft 0kts
20-Oct-20 17:51 33.797802 -118.332294 7 108ft 0kts
20-Oct-20 17:52 33.797728 -118.332460 240 109ft 2kts
20-Oct-20 17:53 33.797712 -118.334135 270 112ft 1kts
20-Oct-20 17:54 33.799130 -118.333253 39 102ft 0kts
20-Oct-20 17:55 33.799180 -118.333206 37 102ft 0kts
20-Oct-20 17:56 33.799266 -118.333126 37 101ft 0kts
20-Oct-20 17:57 33.799347 -118.333050 37 101ft 0kts
20-Oct-20 17:58 33.799425 -118.332979 37 101ft 0kts
20-Oct-20 17:59 33.799507 -118.332901 38 101ft 0kts
20-Oct-20 18:00 33.799561 -118.332900 213 101ft 4kts
20-Oct-20 18:02 33.799049 -118.333358 354 102ft 0kts
20-Oct-20 18:03 33.799070 -118.333361 353 102ft 0kts
20-Oct-20 18:04 33.799072 -118.333362 359 102ft 0kts
20-Oct-20 18:05 33.799101 -118.333349 45 102ft 0kts
20-Oct-20 18:06 33.799221 -118.333200 34 101ft 10kts
20-Oct-20 18:07 33.805407 -118.341672 300 198ft 82kts
20-Oct-20 18:08 33.817506 -118.362134 316 1046ft 78kts
20-Oct-20 18:09 33.837867 -118.374577 327 1694ft 90kts
20-Oct-20 18:10 33.858016 -118.391417 316 2338ft 90kts
20-Oct-20 18:11 33.870846 -118.411555 228 2947ft 84kts
20-Oct-20 18:12 33.849070 -118.415152 141 3495ft 94kts
20-Oct-20 18:13 33.827552 -118.394518 143 3983ft 99kts
20-Oct-20 18:14 33.810787 -118.367693 83 4456ft 103kts
20-Oct-20 18:15 33.801898 -118.335850 126 4915ft 100kts
20-Oct-20 18:16 33.788122 -118.304353 118 5334ft 103kts
20-Oct-20 18:17 33.773674 -118.274518 119 5807ft 99kts
20-Oct-20 18:18 33.759674 -118.246154 117 6271ft 94kts
20-Oct-20 18:19 33.746488 -118.219184 115 6717ft 86kts
20-Oct-20 18:19 33.736802 -118.199531 114 6935ft 80kts
20-Oct-20 18:21 33.720101 -118.167052 120 7095ft 114kts
20-Oct-20 18:21 33.704272 -118.136754 121 7093ft 134kts
20-Oct-20 18:22 33.684175 -118.097409 121 7083ft 127kts
20-Oct-20 18:23 33.666353 -118.062099 120 7087ft 117kts
20-Oct-20 18:24 33.649492 -118.028395 120 7089ft 113kts
20-Oct-20 18:25 33.631937 -117.993558 119 7087ft 112kts
20-Oct-20 18:26 33.615550 -117.961105 120 7090ft 111kts
20-Oct-20 18:27 33.599360 -117.929164 120 7088ft 112kts
20-Oct-20 18:28 33.582298 -117.895453 120 7086ft 116kts
20-Oct-20 18:29 33.564152 -117.859700 120 7085ft 117kts
20-Oct-20 18:30 33.546071 -117.824058 120 7076ft 119kts
20-Oct-20 18:31 33.528575 -117.788369 119 7074ft 120kts
20-Oct-20 18:32 33.509766 -117.751752 119 7069ft 120kts
20-Oct-20 18:33 33.490962 -117.714606 118 7067ft 119kts
20-Oct-20 18:34 33.468261 -117.680585 134 7056ft 120kts
20-Oct-20 18:35 33.441587 -117.649744 136 7060ft 120kts
20-Oct-20 18:36 33.415000 -117.618505 134 7056ft 118kts
20-Oct-20 18:37 33.388141 -117.586672 136 7054ft 120kts
20-Oct-20 18:38 33.360752 -117.555081 134 7057ft 121kts
20-Oct-20 18:39 33.335320 -117.525876 136 7028ft 121kts
20-Oct-20 18:40 33.309744 -117.495890 134 7025ft 120kts
20-Oct-20 18:41 33.284810 -117.466552 135 7027ft 120kts
20-Oct-20 18:42 33.259878 -117.438397 134 7025ft 120kts
20-Oct-20 18:43 33.240186 -117.407251 89 7034ft 116kts
20-Oct-20 18:44 33.228550 -117.369754 109 7050ft 119kts
20-Oct-20 18:45 33.215095 -117.332469 110 7045ft 118kts
20-Oct-20 18:46 33.202307 -117.296800 108 7106ft 110kts
20-Oct-20 18:47 33.191105 -117.263340 90 7591ft 105kts
20-Oct-20 18:48 33.187951 -117.229010 88 8056ft 101kts
20-Oct-20 18:49 33.185312 -117.195639 90 8545ft 100kts
20-Oct-20 18:50 33.182861 -117.162427 89 9035ft 98kts
20-Oct-20 18:51 33.180314 -117.124190 92 9039ft 119kts
20-Oct-20 18:52 33.179361 -117.083851 91 9025ft 108kts
20-Oct-20 18:53 33.178747 -117.049542 90 9027ft 102kts
20-Oct-20 18:54 33.178188 -117.015145 90 9024ft 103kts
20-Oct-20 18:55 33.177610 -116.980453 90 9022ft 103kts
20-Oct-20 18:56 33.177035 -116.945714 90 9019ft 104kts
20-Oct-20 18:57 33.176465 -116.910815 90 9016ft 104kts
20-Oct-20 18:58 33.175941 -116.875612 90 9014ft 107kts
20-Oct-20 18:59 33.171931 -116.839539 100 9014ft 109kts
20-Oct-20 19:00 33.166106 -116.803622 99 9011ft 106kts
20-Oct-20 19:01 33.160102 -116.768276 99 9012ft 105kts
20-Oct-20 19:02 33.154274 -116.733685 98 9011ft 107kts
20-Oct-20 19:03 33.146674 -116.697419 99 9012ft 112kts
20-Oct-20 19:04 33.141820 -116.663235 79 9014ft 96kts
20-Oct-20 19:05 33.130248 -116.632302 95 9036ft 113kts
20-Oct-20 19:06 33.138355 -116.596582 65 9005ft 117kts
20-Oct-20 19:07 33.142605 -116.557209 81 8552ft 117kts
20-Oct-20 19:08 33.144868 -116.519792 80 8047ft 111kts
20-Oct-20 19:09 33.147157 -116.482500 80 7555ft 112kts
20-Oct-20 19:10 33.150200 -116.443722 58 7569ft 110kts
20-Oct-20 19:11 33.165997 -116.451651 256 7730ft 95kts
20-Oct-20 19:12 33.159840 -116.482281 260 7698ft 89kts
20-Oct-20 19:13 33.154229 -116.510973 259 7718ft 91kts
20-Oct-20 19:14 33.148347 -116.541725 259 7713ft 92kts
20-Oct-20 19:15 33.140573 -116.572319 253 7714ft 91kts
20-Oct-20 19:16 33.131589 -116.604140 255 7520ft 100kts
20-Oct-20 19:17 33.122377 -116.636776 255 7003ft 90kts
20-Oct-20 19:18 33.113985 -116.666496 254 6709ft 91kts
20-Oct-20 19:19 33.105773 -116.694885 255 6605ft 92kts
20-Oct-20 19:20 33.095767 -116.726222 254 6095ft 94kts
20-Oct-20 19:21 33.085865 -116.757372 253 5542ft 89kts
20-Oct-20 19:22 33.076096 -116.787784 250 5065ft 97kts
20-Oct-20 19:23 33.066653 -116.820762 253 4662ft 96kts
20-Oct-20 19:24 33.057535 -116.851586 256 3932ft 90kts
20-Oct-20 19:25 33.045573 -116.876068 205 3000ft 88kts
20-Oct-20 19:26 33.035726 -116.893414 282 1982ft 71kts
20-Oct-20 19:27 33.038564 -116.911629 279 1394ft 24kts
20-Oct-20 19:28 33.039501 -116.912873 277 1394ft 10kts

Navigation Log

Ident Type
Flight plan parsing failed, navigation log unavailable